sensor_id;sensor_type;location;lat;lon;timestamp;P1;durP1;ratioP1;P2;durP2;ratioP2
71610;SDS011;59459;51.172;6.682;2023-05-20T00:01:57;6.17;;;1.60;;
71610;SDS011;59459;51.172;6.682;2023-05-20T00:04:23;4.40;;;1.70;;
71610;SDS011;59459;51.172;6.682;2023-05-20T00:06:48;3.93;;;1.43;;
71610;SDS011;59459;51.172;6.682;2023-05-20T00:09:13;3.60;;;1.57;;
71610;SDS011;59459;51.172;6.682;2023-05-20T00:11:38;4.00;;;1.70;;
71610;SDS011;59459;51.172;6.682;2023-05-20T00:14:04;6.67;;;2.10;;
71610;SDS011;59459;51.172;6.682;2023-05-20T00:16:29;3.83;;;1.73;;
71610;SDS011;59459;51.172;6.682;2023-05-20T00:18:54;5.97;;;1.60;;
71610;SDS011;59459;51.172;6.682;2023-05-20T00:21:21;4.88;;;1.55;;
71610;SDS011;59459;51.172;6.682;2023-05-20T00:23:46;4.87;;;2.10;;
71610;SDS011;59459;51.172;6.682;2023-05-20T00:26:11;5.10;;;1.40;;
71610;SDS011;59459;51.172;6.682;2023-05-20T00:28:36;3.87;;;1.50;;
71610;SDS011;59459;51.172;6.682;2023-05-20T00:31:01;4.73;;;1.60;;
71610;SDS011;59459;51.172;6.682;2023-05-20T00:33:27;4.50;;;2.00;;
71610;SDS011;59459;51.172;6.682;2023-05-20T00:35:52;3.80;;;1.70;;
71610;SDS011;59459;51.172;6.682;2023-05-20T00:38:17;3.83;;;1.83;;
71610;SDS011;59459;51.172;6.682;2023-05-20T00:40:43;3.93;;;1.80;;
71610;SDS011;59459;51.172;6.682;2023-05-20T00:43:08;6.87;;;2.70;;
71610;SDS011;59459;51.172;6.682;2023-05-20T00:45:33;5.33;;;2.53;;
71610;SDS011;59459;51.172;6.682;2023-05-20T00:47:58;5.30;;;2.60;;
71610;SDS011;59459;51.172;6.682;2023-05-20T00:50:26;6.32;;;2.60;;
71610;SDS011;59459;51.172;6.682;2023-05-20T00:52:51;6.85;;;2.53;;
71610;SDS011;59459;51.172;6.682;2023-05-20T00:55:19;7.60;;;2.70;;
71610;SDS011;59459;51.172;6.682;2023-05-20T00:57:44;5.07;;;2.33;;
71610;SDS011;59459;51.172;6.682;2023-05-20T01:00:09;6.27;;;2.77;;
71610;SDS011;59459;51.172;6.682;2023-05-20T01:02:35;8.40;;;3.40;;
71610;SDS011;59459;51.172;6.682;2023-05-20T01:05:00;6.53;;;2.93;;
71610;SDS011;59459;51.172;6.682;2023-05-20T01:07:25;5.97;;;2.70;;
71610;SDS011;59459;51.172;6.682;2023-05-20T01:09:51;6.80;;;2.57;;
71610;SDS011;59459;51.172;6.682;2023-05-20T01:12:38;5.25;;;2.40;;
71610;SDS011;59459;51.172;6.682;2023-05-20T01:15:10;5.60;;;2.28;;
71610;SDS011;59459;51.172;6.682;2023-05-20T01:17:42;6.07;;;2.30;;
71610;SDS011;59459;51.172;6.682;2023-05-20T01:20:09;6.07;;;2.20;;
71610;SDS011;59459;51.172;6.682;2023-05-20T01:22:38;5.30;;;2.00;;
71610;SDS011;59459;51.172;6.682;2023-05-20T01:25:10;4.93;;;2.08;;
71610;SDS011;59459;51.172;6.682;2023-05-20T01:27:35;4.97;;;2.13;;
71610;SDS011;59459;51.172;6.682;2023-05-20T01:30:01;4.75;;;2.17;;
71610;SDS011;59459;51.172;6.682;2023-05-20T01:32:30;8.17;;;2.50;;
71610;SDS011;59459;51.172;6.682;2023-05-20T01:34:56;4.50;;;1.80;;
71610;SDS011;59459;51.172;6.682;2023-05-20T01:37:21;5.03;;;2.10;;
71610;SDS011;59459;51.172;6.682;2023-05-20T01:39:49;4.40;;;2.17;;
71610;SDS011;59459;51.172;6.682;2023-05-20T01:42:15;3.70;;;2.13;;
71610;SDS011;59459;51.172;6.682;2023-05-20T01:44:41;5.23;;;1.77;;
71610;SDS011;59459;51.172;6.682;2023-05-20T01:47:07;4.47;;;2.17;;
71610;SDS011;59459;51.172;6.682;2023-05-20T01:49:32;4.17;;;1.90;;
71610;SDS011;59459;51.172;6.682;2023-05-20T01:51:57;5.07;;;2.13;;
71610;SDS011;59459;51.172;6.682;2023-05-20T01:54:22;5.57;;;2.13;;
71610;SDS011;59459;51.172;6.682;2023-05-20T01:56:48;4.83;;;2.10;;
71610;SDS011;59459;51.172;6.682;2023-05-20T01:59:14;4.65;;;2.33;;
71610;SDS011;59459;51.172;6.682;2023-05-20T02:01:39;4.27;;;2.10;;
71610;SDS011;59459;51.172;6.682;2023-05-20T02:04:04;4.97;;;2.33;;
71610;SDS011;59459;51.172;6.682;2023-05-20T02:06:29;5.47;;;2.17;;
71610;SDS011;59459;51.172;6.682;2023-05-20T02:08:55;5.33;;;2.07;;
71610;SDS011;59459;51.172;6.682;2023-05-20T02:11:20;4.80;;;2.03;;
71610;SDS011;59459;51.172;6.682;2023-05-20T02:13:46;5.78;;;2.00;;
71610;SDS011;59459;51.172;6.682;2023-05-20T02:16:11;4.40;;;2.20;;
71610;SDS011;59459;51.172;6.682;2023-05-20T02:18:36;4.57;;;2.30;;
71610;SDS011;59459;51.172;6.682;2023-05-20T02:21:02;5.03;;;2.00;;
71610;SDS011;59459;51.172;6.682;2023-05-20T02:23:28;5.60;;;2.53;;
71610;SDS011;59459;51.172;6.682;2023-05-20T02:25:53;6.43;;;2.37;;
71610;SDS011;59459;51.172;6.682;2023-05-20T02:28:19;4.23;;;2.07;;
71610;SDS011;59459;51.172;6.682;2023-05-20T02:30:44;5.17;;;2.23;;
71610;SDS011;59459;51.172;6.682;2023-05-20T02:33:09;6.00;;;2.43;;
71610;SDS011;59459;51.172;6.682;2023-05-20T02:35:36;6.43;;;3.35;;
71610;SDS011;59459;51.172;6.682;2023-05-20T02:38:01;5.50;;;2.20;;
71610;SDS011;59459;51.172;6.682;2023-05-20T02:40:26;4.80;;;2.47;;
71610;SDS011;59459;51.172;6.682;2023-05-20T02:42:51;4.90;;;2.20;;
71610;SDS011;59459;51.172;6.682;2023-05-20T02:45:17;5.20;;;2.20;;
71610;SDS011;59459;51.172;6.682;2023-05-20T02:47:42;6.17;;;2.43;;
71610;SDS011;59459;51.172;6.682;2023-05-20T02:50:07;6.23;;;2.63;;
71610;SDS011;59459;51.172;6.682;2023-05-20T02:52:33;6.30;;;2.30;;
71610;SDS011;59459;51.172;6.682;2023-05-20T02:54:59;6.00;;;2.53;;
71610;SDS011;59459;51.172;6.682;2023-05-20T02:57:24;7.47;;;2.28;;
71610;SDS011;59459;51.172;6.682;2023-05-20T02:59:52;4.17;;;1.93;;
71610;SDS011;59459;51.172;6.682;2023-05-20T03:02:17;4.68;;;2.20;;
71610;SDS011;59459;51.172;6.682;2023-05-20T03:04:43;6.50;;;2.50;;
71610;SDS011;59459;51.172;6.682;2023-05-20T03:07:10;5.90;;;2.00;;
71610;SDS011;59459;51.172;6.682;2023-05-20T03:09:36;4.63;;;2.05;;
71610;SDS011;59459;51.172;6.682;2023-05-20T03:12:01;3.67;;;2.00;;
71610;SDS011;59459;51.172;6.682;2023-05-20T03:14:26;4.63;;;2.33;;
71610;SDS011;59459;51.172;6.682;2023-05-20T03:16:52;5.60;;;2.47;;
71610;SDS011;59459;51.172;6.682;2023-05-20T03:19:19;6.13;;;2.30;;
71610;SDS011;59459;51.172;6.682;2023-05-20T03:21:44;5.17;;;1.87;;
71610;SDS011;59459;51.172;6.682;2023-05-20T03:24:10;4.93;;;1.98;;
71610;SDS011;59459;51.172;6.682;2023-05-20T03:26:35;4.87;;;2.00;;
71610;SDS011;59459;51.172;6.682;2023-05-20T03:29:03;5.05;;;2.80;;
71610;SDS011;59459;51.172;6.682;2023-05-20T03:31:28;6.07;;;2.47;;
71610;SDS011;59459;51.172;6.682;2023-05-20T03:33:53;3.93;;;1.83;;
71610;SDS011;59459;51.172;6.682;2023-05-20T03:36:18;4.27;;;2.10;;
71610;SDS011;59459;51.172;6.682;2023-05-20T03:38:43;6.10;;;2.90;;
71610;SDS011;59459;51.172;6.682;2023-05-20T03:41:09;4.53;;;2.10;;
71610;SDS011;59459;51.172;6.682;2023-05-20T03:43:34;5.23;;;2.57;;
71610;SDS011;59459;51.172;6.682;2023-05-20T03:45:59;5.53;;;2.40;;
71610;SDS011;59459;51.172;6.682;2023-05-20T03:48:24;5.13;;;2.00;;
71610;SDS011;59459;51.172;6.682;2023-05-20T03:50:50;5.07;;;2.13;;
71610;SDS011;59459;51.172;6.682;2023-05-20T03:53:15;4.63;;;1.90;;
71610;SDS011;59459;51.172;6.682;2023-05-20T03:55:41;5.15;;;2.15;;
71610;SDS011;59459;51.172;6.682;2023-05-20T03:58:06;4.50;;;2.07;;
71610;SDS011;59459;51.172;6.682;2023-05-20T04:00:32;6.33;;;2.30;;
71610;SDS011;59459;51.172;6.682;2023-05-20T04:02:57;7.47;;;2.58;;
71610;SDS011;59459;51.172;6.682;2023-05-20T04:05:23;4.30;;;2.17;;
71610;SDS011;59459;51.172;6.682;2023-05-20T04:07:49;5.07;;;2.70;;
71610;SDS011;59459;51.172;6.682;2023-05-20T04:10:14;6.13;;;2.70;;
71610;SDS011;59459;51.172;6.682;2023-05-20T04:12:39;5.63;;;2.67;;
71610;SDS011;59459;51.172;6.682;2023-05-20T04:15:05;5.40;;;2.30;;
71610;SDS011;59459;51.172;6.682;2023-05-20T04:17:30;6.03;;;2.57;;
71610;SDS011;59459;51.172;6.682;2023-05-20T04:19:56;5.10;;;2.67;;
71610;SDS011;59459;51.172;6.682;2023-05-20T04:22:22;6.93;;;2.40;;
71610;SDS011;59459;51.172;6.682;2023-05-20T04:24:47;4.90;;;2.33;;
71610;SDS011;59459;51.172;6.682;2023-05-20T04:27:12;5.97;;;2.40;;
71610;SDS011;59459;51.172;6.682;2023-05-20T04:29:38;5.47;;;2.23;;
71610;SDS011;59459;51.172;6.682;2023-05-20T04:32:05;4.63;;;2.13;;
71610;SDS011;59459;51.172;6.682;2023-05-20T04:34:34;5.60;;;2.13;;
71610;SDS011;59459;51.172;6.682;2023-05-20T04:37:01;5.22;;;2.38;;
71610;SDS011;59459;51.172;6.682;2023-05-20T04:39:26;5.03;;;2.40;;
71610;SDS011;59459;51.172;6.682;2023-05-20T04:41:52;5.47;;;2.40;;
71610;SDS011;59459;51.172;6.682;2023-05-20T04:44:19;5.78;;;2.47;;
71610;SDS011;59459;51.172;6.682;2023-05-20T04:46:44;6.07;;;2.27;;
71610;SDS011;59459;51.172;6.682;2023-05-20T04:49:10;5.87;;;2.17;;
71610;SDS011;59459;51.172;6.682;2023-05-20T04:51:35;4.60;;;2.23;;
71610;SDS011;59459;51.172;6.682;2023-05-20T04:54:00;4.97;;;2.40;;
71610;SDS011;59459;51.172;6.682;2023-05-20T04:56:26;5.27;;;2.47;;
71610;SDS011;59459;51.172;6.682;2023-05-20T04:58:51;6.50;;;2.23;;
71610;SDS011;59459;51.172;6.682;2023-05-20T05:01:16;4.72;;;2.42;;
71610;SDS011;59459;51.172;6.682;2023-05-20T05:03:41;5.57;;;2.40;;
71610;SDS011;59459;51.172;6.682;2023-05-20T05:06:07;5.47;;;2.80;;
71610;SDS011;59459;51.172;6.682;2023-05-20T05:08:32;5.10;;;2.13;;
71610;SDS011;59459;51.172;6.682;2023-05-20T05:10:57;5.77;;;2.40;;
71610;SDS011;59459;51.172;6.682;2023-05-20T05:13:22;5.40;;;2.10;;
71610;SDS011;59459;51.172;6.682;2023-05-20T05:15:47;5.13;;;2.40;;
71610;SDS011;59459;51.172;6.682;2023-05-20T05:18:13;6.03;;;2.80;;
71610;SDS011;59459;51.172;6.682;2023-05-20T05:20:42;5.68;;;2.35;;
71610;SDS011;59459;51.172;6.682;2023-05-20T05:23:07;5.40;;;2.57;;
71610;SDS011;59459;51.172;6.682;2023-05-20T05:25:32;6.63;;;2.60;;
71610;SDS011;59459;51.172;6.682;2023-05-20T05:27:57;4.33;;;2.33;;
71610;SDS011;59459;51.172;6.682;2023-05-20T05:30:23;4.60;;;2.07;;
71610;SDS011;59459;51.172;6.682;2023-05-20T05:32:48;5.33;;;2.53;;
71610;SDS011;59459;51.172;6.682;2023-05-20T05:35:13;6.57;;;3.03;;
71610;SDS011;59459;51.172;6.682;2023-05-20T05:37:40;5.80;;;2.20;;
71610;SDS011;59459;51.172;6.682;2023-05-20T05:40:06;4.67;;;2.40;;
71610;SDS011;59459;51.172;6.682;2023-05-20T05:42:32;5.80;;;2.43;;
71610;SDS011;59459;51.172;6.682;2023-05-20T05:44:57;6.17;;;2.50;;
71610;SDS011;59459;51.172;6.682;2023-05-20T05:47:22;6.37;;;2.20;;
71610;SDS011;59459;51.172;6.682;2023-05-20T05:49:47;6.80;;;2.57;;
71610;SDS011;59459;51.172;6.682;2023-05-20T05:52:13;6.43;;;2.20;;
71610;SDS011;59459;51.172;6.682;2023-05-20T05:54:38;5.20;;;2.47;;
71610;SDS011;59459;51.172;6.682;2023-05-20T05:57:04;5.37;;;2.20;;
71610;SDS011;59459;51.172;6.682;2023-05-20T05:59:29;5.10;;;2.10;;
71610;SDS011;59459;51.172;6.682;2023-05-20T06:01:54;6.77;;;2.30;;
71610;SDS011;59459;51.172;6.682;2023-05-20T06:04:20;5.43;;;2.20;;
71610;SDS011;59459;51.172;6.682;2023-05-20T06:06:46;4.63;;;2.10;;
71610;SDS011;59459;51.172;6.682;2023-05-20T06:09:11;4.97;;;2.50;;
71610;SDS011;59459;51.172;6.682;2023-05-20T06:11:37;5.10;;;2.10;;
71610;SDS011;59459;51.172;6.682;2023-05-20T06:14:02;5.27;;;2.37;;
71610;SDS011;59459;51.172;6.682;2023-05-20T06:16:27;4.43;;;2.60;;
71610;SDS011;59459;51.172;6.682;2023-05-20T06:18:52;5.27;;;2.20;;
71610;SDS011;59459;51.172;6.682;2023-05-20T06:21:21;4.88;;;2.22;;
71610;SDS011;59459;51.172;6.682;2023-05-20T06:23:46;5.30;;;2.10;;
71610;SDS011;59459;51.172;6.682;2023-05-20T06:26:11;7.40;;;3.00;;
71610;SDS011;59459;51.172;6.682;2023-05-20T06:28:37;5.00;;;2.40;;
71610;SDS011;59459;51.172;6.682;2023-05-20T06:31:02;6.60;;;3.13;;
71610;SDS011;59459;51.172;6.682;2023-05-20T06:33:28;6.43;;;2.67;;
71610;SDS011;59459;51.172;6.682;2023-05-20T06:35:53;4.90;;;2.13;;
71610;SDS011;59459;51.172;6.682;2023-05-20T06:38:19;5.10;;;2.45;;
71610;SDS011;59459;51.172;6.682;2023-05-20T06:40:45;5.50;;;2.57;;
71610;SDS011;59459;51.172;6.682;2023-05-20T06:43:10;4.95;;;2.10;;
71610;SDS011;59459;51.172;6.682;2023-05-20T06:45:35;4.30;;;2.17;;
71610;SDS011;59459;51.172;6.682;2023-05-20T06:48:00;6.73;;;2.70;;
71610;SDS011;59459;51.172;6.682;2023-05-20T06:50:26;5.43;;;2.17;;
71610;SDS011;59459;51.172;6.682;2023-05-20T06:52:52;5.83;;;2.13;;
71610;SDS011;59459;51.172;6.682;2023-05-20T06:55:17;6.22;;;2.53;;
71610;SDS011;59459;51.172;6.682;2023-05-20T06:57:42;4.40;;;2.33;;
71610;SDS011;59459;51.172;6.682;2023-05-20T07:00:09;5.50;;;2.37;;
71610;SDS011;59459;51.172;6.682;2023-05-20T07:02:34;3.95;;;2.05;;
71610;SDS011;59459;51.172;6.682;2023-05-20T07:04:59;5.43;;;2.73;;
71610;SDS011;59459;51.172;6.682;2023-05-20T07:07:25;5.83;;;2.37;;
71610;SDS011;59459;51.172;6.682;2023-05-20T07:09:51;5.07;;;2.20;;
71610;SDS011;59459;51.172;6.682;2023-05-20T07:12:16;7.03;;;2.55;;
71610;SDS011;59459;51.172;6.682;2023-05-20T07:14:42;5.27;;;2.27;;
71610;SDS011;59459;51.172;6.682;2023-05-20T07:17:07;8.40;;;2.60;;
71610;SDS011;59459;51.172;6.682;2023-05-20T07:19:32;7.87;;;2.27;;
71610;SDS011;59459;51.172;6.682;2023-05-20T07:21:58;4.13;;;2.23;;
71610;SDS011;59459;51.172;6.682;2023-05-20T07:24:23;5.30;;;2.63;;
71610;SDS011;59459;51.172;6.682;2023-05-20T07:26:48;4.17;;;1.93;;
71610;SDS011;59459;51.172;6.682;2023-05-20T07:29:13;5.55;;;2.30;;
71610;SDS011;59459;51.172;6.682;2023-05-20T07:31:39;4.97;;;2.40;;
71610;SDS011;59459;51.172;6.682;2023-05-20T07:34:04;5.03;;;2.00;;
71610;SDS011;59459;51.172;6.682;2023-05-20T07:36:29;5.93;;;2.43;;
71610;SDS011;59459;51.172;6.682;2023-05-20T07:38:55;5.10;;;2.10;;
71610;SDS011;59459;51.172;6.682;2023-05-20T07:41:20;5.13;;;2.10;;
71610;SDS011;59459;51.172;6.682;2023-05-20T07:43:46;6.03;;;3.13;;
71610;SDS011;59459;51.172;6.682;2023-05-20T07:46:11;7.67;;;2.63;;
71610;SDS011;59459;51.172;6.682;2023-05-20T07:48:37;5.57;;;2.50;;
71610;SDS011;59459;51.172;6.682;2023-05-20T07:51:02;5.60;;;2.87;;
71610;SDS011;59459;51.172;6.682;2023-05-20T07:53:27;5.00;;;2.53;;
71610;SDS011;59459;51.172;6.682;2023-05-20T07:55:52;4.70;;;2.20;;
71610;SDS011;59459;51.172;6.682;2023-05-20T07:58:18;5.28;;;3.20;;
71610;SDS011;59459;51.172;6.682;2023-05-20T08:00:43;5.87;;;2.80;;
71610;SDS011;59459;51.172;6.682;2023-05-20T08:03:08;5.73;;;3.20;;
71610;SDS011;59459;51.172;6.682;2023-05-20T08:05:35;6.43;;;2.40;;
71610;SDS011;59459;51.172;6.682;2023-05-20T08:08:00;6.00;;;2.80;;
71610;SDS011;59459;51.172;6.682;2023-05-20T08:10:26;7.63;;;3.13;;
71610;SDS011;59459;51.172;6.682;2023-05-20T08:12:51;4.63;;;2.10;;
71610;SDS011;59459;51.172;6.682;2023-05-20T08:15:16;5.27;;;2.60;;
71610;SDS011;59459;51.172;6.682;2023-05-20T08:17:41;5.13;;;2.67;;
71610;SDS011;59459;51.172;6.682;2023-05-20T08:20:08;5.33;;;3.00;;
71610;SDS011;59459;51.172;6.682;2023-05-20T08:22:33;5.38;;;2.53;;
71610;SDS011;59459;51.172;6.682;2023-05-20T08:25:01;6.00;;;2.60;;
71610;SDS011;59459;51.172;6.682;2023-05-20T08:27:26;5.67;;;2.70;;
71610;SDS011;59459;51.172;6.682;2023-05-20T08:29:51;6.23;;;2.70;;
71610;SDS011;59459;51.172;6.682;2023-05-20T08:32:17;7.60;;;2.70;;
71610;SDS011;59459;51.172;6.682;2023-05-20T08:34:42;8.27;;;2.83;;
71610;SDS011;59459;51.172;6.682;2023-05-20T08:37:07;6.20;;;3.07;;
71610;SDS011;59459;51.172;6.682;2023-05-20T08:39:32;6.33;;;3.03;;
71610;SDS011;59459;51.172;6.682;2023-05-20T08:41:58;5.93;;;3.07;;
71610;SDS011;59459;51.172;6.682;2023-05-20T08:44:23;7.47;;;3.27;;
71610;SDS011;59459;51.172;6.682;2023-05-20T08:46:49;6.80;;;3.20;;
71610;SDS011;59459;51.172;6.682;2023-05-20T08:49:15;6.55;;;3.10;;
71610;SDS011;59459;51.172;6.682;2023-05-20T08:51:41;6.43;;;3.07;;
71610;SDS011;59459;51.172;6.682;2023-05-20T08:54:10;6.33;;;2.70;;
71610;SDS011;59459;51.172;6.682;2023-05-20T08:56:36;6.90;;;3.38;;
71610;SDS011;59459;51.172;6.682;2023-05-20T08:59:02;7.10;;;3.28;;
71610;SDS011;59459;51.172;6.682;2023-05-20T09:01:27;6.87;;;3.00;;
71610;SDS011;59459;51.172;6.682;2023-05-20T09:03:53;6.30;;;2.67;;
71610;SDS011;59459;51.172;6.682;2023-05-20T09:06:18;6.60;;;3.17;;
71610;SDS011;59459;51.172;6.682;2023-05-20T09:08:44;5.97;;;3.00;;
71610;SDS011;59459;51.172;6.682;2023-05-20T09:11:09;5.03;;;2.92;;
71610;SDS011;59459;51.172;6.682;2023-05-20T09:13:35;7.60;;;3.47;;
71610;SDS011;59459;51.172;6.682;2023-05-20T09:16:00;7.90;;;3.63;;
71610;SDS011;59459;51.172;6.682;2023-05-20T09:18:26;8.27;;;3.47;;
71610;SDS011;59459;51.172;6.682;2023-05-20T09:20:51;6.77;;;3.13;;
71610;SDS011;59459;51.172;6.682;2023-05-20T09:23:17;7.23;;;3.07;;
71610;SDS011;59459;51.172;6.682;2023-05-20T09:25:43;7.40;;;3.00;;
71610;SDS011;59459;51.172;6.682;2023-05-20T09:28:08;9.20;;;3.67;;
71610;SDS011;59459;51.172;6.682;2023-05-20T09:30:33;9.77;;;3.53;;
71610;SDS011;59459;51.172;6.682;2023-05-20T09:32:59;6.23;;;3.20;;
71610;SDS011;59459;51.172;6.682;2023-05-20T09:35:26;7.20;;;3.88;;
71610;SDS011;59459;51.172;6.682;2023-05-20T09:37:52;7.30;;;3.13;;
71610;SDS011;59459;51.172;6.682;2023-05-20T09:40:19;7.45;;;3.78;;
71610;SDS011;59459;51.172;6.682;2023-05-20T09:42:49;6.60;;;3.65;;
71610;SDS011;59459;51.172;6.682;2023-05-20T09:45:16;6.33;;;3.43;;
71610;SDS011;59459;51.172;6.682;2023-05-20T09:47:42;7.25;;;3.55;;
71610;SDS011;59459;51.172;6.682;2023-05-20T09:50:08;6.53;;;3.47;;
71610;SDS011;59459;51.172;6.682;2023-05-20T09:52:37;7.45;;;3.25;;
71610;SDS011;59459;51.172;6.682;2023-05-20T09:55:03;6.18;;;3.22;;
71610;SDS011;59459;51.172;6.682;2023-05-20T09:57:34;6.30;;;3.13;;
71610;SDS011;59459;51.172;6.682;2023-05-20T10:00:00;6.72;;;3.40;;
71610;SDS011;59459;51.172;6.682;2023-05-20T10:02:26;6.30;;;3.13;;
71610;SDS011;59459;51.172;6.682;2023-05-20T10:04:51;6.43;;;3.20;;
71610;SDS011;59459;51.172;6.682;2023-05-20T10:07:25;7.53;;;3.10;;
71610;SDS011;59459;51.172;6.682;2023-05-20T10:10:07;7.22;;;3.30;;
71610;SDS011;59459;51.172;6.682;2023-05-20T10:15:37;7.27;;;4.03;;
71610;SDS011;59459;51.172;6.682;2023-05-20T10:20:44;6.95;;;3.38;;
71610;SDS011;59459;51.172;6.682;2023-05-20T10:23:18;6.60;;;3.83;;
71610;SDS011;59459;51.172;6.682;2023-05-20T10:25:49;7.32;;;3.58;;
71610;SDS011;59459;51.172;6.682;2023-05-20T10:28:14;8.07;;;3.50;;
71610;SDS011;59459;51.172;6.682;2023-05-20T10:30:47;7.90;;;4.07;;
71610;SDS011;59459;51.172;6.682;2023-05-20T10:33:15;6.78;;;3.25;;
71610;SDS011;59459;51.172;6.682;2023-05-20T10:35:45;6.00;;;3.17;;
71610;SDS011;59459;51.172;6.682;2023-05-20T10:38:11;6.88;;;2.80;;
71610;SDS011;59459;51.172;6.682;2023-05-20T10:40:37;6.78;;;3.25;;
71610;SDS011;59459;51.172;6.682;2023-05-20T10:45:50;7.40;;;3.25;;
71610;SDS011;59459;51.172;6.682;2023-05-20T10:48:28;6.18;;;3.05;;
71610;SDS011;59459;51.172;6.682;2023-05-20T10:50:54;7.85;;;3.25;;
71610;SDS011;59459;51.172;6.682;2023-05-20T10:53:21;6.90;;;3.92;;
71610;SDS011;59459;51.172;6.682;2023-05-20T10:55:47;7.53;;;3.33;;
71610;SDS011;59459;51.172;6.682;2023-05-20T10:58:15;7.65;;;4.00;;
71610;SDS011;59459;51.172;6.682;2023-05-20T11:00:41;8.80;;;4.20;;
71610;SDS011;59459;51.172;6.682;2023-05-20T11:03:07;7.25;;;3.42;;
71610;SDS011;59459;51.172;6.682;2023-05-20T11:05:32;6.67;;;3.97;;
71610;SDS011;59459;51.172;6.682;2023-05-20T11:08:05;7.57;;;3.47;;
71610;SDS011;59459;51.172;6.682;2023-05-20T11:10:30;8.23;;;3.92;;
71610;SDS011;59459;51.172;6.682;2023-05-20T11:12:57;6.05;;;3.42;;
71610;SDS011;59459;51.172;6.682;2023-05-20T11:15:22;9.03;;;3.97;;
71610;SDS011;59459;51.172;6.682;2023-05-20T11:17:55;7.82;;;3.72;;
71610;SDS011;59459;51.172;6.682;2023-05-20T11:20:21;7.82;;;3.92;;
71610;SDS011;59459;51.172;6.682;2023-05-20T11:22:48;7.82;;;3.40;;
71610;SDS011;59459;51.172;6.682;2023-05-20T11:25:13;6.47;;;3.67;;
71610;SDS011;59459;51.172;6.682;2023-05-20T11:27:38;7.13;;;3.80;;
71610;SDS011;59459;51.172;6.682;2023-05-20T11:30:03;8.77;;;4.37;;
71610;SDS011;59459;51.172;6.682;2023-05-20T11:32:29;7.32;;;3.83;;
71610;SDS011;59459;51.172;6.682;2023-05-20T11:34:55;8.67;;;4.07;;
71610;SDS011;59459;51.172;6.682;2023-05-20T11:37:20;8.75;;;3.95;;
71610;SDS011;59459;51.172;6.682;2023-05-20T11:39:47;6.43;;;3.87;;
71610;SDS011;59459;51.172;6.682;2023-05-20T11:42:16;8.07;;;4.40;;
71610;SDS011;59459;51.172;6.682;2023-05-20T11:44:42;10.03;;;4.27;;
71610;SDS011;59459;51.172;6.682;2023-05-20T11:47:08;8.65;;;4.38;;
71610;SDS011;59459;51.172;6.682;2023-05-20T11:49:38;7.70;;;3.83;;
71610;SDS011;59459;51.172;6.682;2023-05-20T11:52:03;10.32;;;4.30;;
71610;SDS011;59459;51.172;6.682;2023-05-20T11:54:28;9.07;;;4.20;;
71610;SDS011;59459;51.172;6.682;2023-05-20T11:56:53;6.67;;;3.73;;
71610;SDS011;59459;51.172;6.682;2023-05-20T11:59:20;9.18;;;4.05;;
71610;SDS011;59459;51.172;6.682;2023-05-20T12:01:47;8.23;;;4.15;;
71610;SDS011;59459;51.172;6.682;2023-05-20T12:04:15;8.23;;;4.13;;
71610;SDS011;59459;51.172;6.682;2023-05-20T12:06:41;7.80;;;3.97;;
71610;SDS011;59459;51.172;6.682;2023-05-20T12:09:08;8.60;;;4.38;;
71610;SDS011;59459;51.172;6.682;2023-05-20T12:11:34;7.53;;;4.03;;
71610;SDS011;59459;51.172;6.682;2023-05-20T12:14:00;7.25;;;3.78;;
71610;SDS011;59459;51.172;6.682;2023-05-20T12:16:25;7.90;;;4.00;;
71610;SDS011;59459;51.172;6.682;2023-05-20T12:18:50;8.77;;;4.67;;
71610;SDS011;59459;51.172;6.682;2023-05-20T12:21:15;8.03;;;3.93;;
71610;SDS011;59459;51.172;6.682;2023-05-20T12:23:41;7.50;;;3.90;;
71610;SDS011;59459;51.172;6.682;2023-05-20T12:26:06;8.10;;;4.17;;
71610;SDS011;59459;51.172;6.682;2023-05-20T12:28:31;9.53;;;4.30;;
71610;SDS011;59459;51.172;6.682;2023-05-20T12:30:57;8.68;;;4.65;;
71610;SDS011;59459;51.172;6.682;2023-05-20T12:33:22;7.50;;;3.53;;
71610;SDS011;59459;51.172;6.682;2023-05-20T12:35:47;8.23;;;4.47;;
71610;SDS011;59459;51.172;6.682;2023-05-20T12:38:13;7.37;;;4.30;;
71610;SDS011;59459;51.172;6.682;2023-05-20T12:40:38;7.40;;;4.00;;
71610;SDS011;59459;51.172;6.682;2023-05-20T12:43:03;9.17;;;4.87;;
71610;SDS011;59459;51.172;6.682;2023-05-20T12:45:29;8.10;;;4.20;;
71610;SDS011;59459;51.172;6.682;2023-05-20T12:47:54;7.33;;;4.10;;
71610;SDS011;59459;51.172;6.682;2023-05-20T12:50:20;6.80;;;3.80;;
71610;SDS011;59459;51.172;6.682;2023-05-20T12:52:45;7.40;;;4.43;;
71610;SDS011;59459;51.172;6.682;2023-05-20T12:55:11;8.53;;;3.77;;
71610;SDS011;59459;51.172;6.682;2023-05-20T12:57:39;8.10;;;4.47;;
71610;SDS011;59459;51.172;6.682;2023-05-20T13:00:05;8.75;;;4.15;;
71610;SDS011;59459;51.172;6.682;2023-05-20T13:02:32;6.05;;;3.35;;
71610;SDS011;59459;51.172;6.682;2023-05-20T13:04:57;6.93;;;3.90;;
71610;SDS011;59459;51.172;6.682;2023-05-20T13:07:22;7.23;;;4.10;;
71610;SDS011;59459;51.172;6.682;2023-05-20T13:09:48;8.13;;;4.43;;
71610;SDS011;59459;51.172;6.682;2023-05-20T13:12:13;9.90;;;4.30;;
71610;SDS011;59459;51.172;6.682;2023-05-20T13:14:38;8.03;;;3.97;;
71610;SDS011;59459;51.172;6.682;2023-05-20T13:17:03;5.53;;;3.07;;
71610;SDS011;59459;51.172;6.682;2023-05-20T13:19:28;6.97;;;3.63;;
71610;SDS011;59459;51.172;6.682;2023-05-20T13:21:54;6.53;;;4.03;;
71610;SDS011;59459;51.172;6.682;2023-05-20T13:24:19;7.13;;;3.95;;
71610;SDS011;59459;51.172;6.682;2023-05-20T13:26:44;7.20;;;3.60;;
71610;SDS011;59459;51.172;6.682;2023-05-20T13:29:10;6.33;;;4.00;;
71610;SDS011;59459;51.172;6.682;2023-05-20T13:31:36;7.35;;;3.58;;
71610;SDS011;59459;51.172;6.682;2023-05-20T13:34:02;5.50;;;3.40;;
71610;SDS011;59459;51.172;6.682;2023-05-20T13:36:27;6.10;;;3.50;;
71610;SDS011;59459;51.172;6.682;2023-05-20T13:38:52;6.50;;;3.90;;
71610;SDS011;59459;51.172;6.682;2023-05-20T13:41:18;6.50;;;4.37;;
71610;SDS011;59459;51.172;6.682;2023-05-20T13:43:43;5.97;;;3.47;;
71610;SDS011;59459;51.172;6.682;2023-05-20T13:46:08;6.63;;;3.20;;
71610;SDS011;59459;51.172;6.682;2023-05-20T13:48:33;7.10;;;3.47;;
71610;SDS011;59459;51.172;6.682;2023-05-20T13:50:59;6.47;;;3.30;;
71610;SDS011;59459;51.172;6.682;2023-05-20T13:53:25;6.50;;;3.30;;
71610;SDS011;59459;51.172;6.682;2023-05-20T13:55:51;6.53;;;3.60;;
71610;SDS011;59459;51.172;6.682;2023-05-20T13:58:16;7.17;;;3.67;;
71610;SDS011;59459;51.172;6.682;2023-05-20T14:00:41;5.67;;;3.27;;
71610;SDS011;59459;51.172;6.682;2023-05-20T14:03:07;5.47;;;3.38;;
71610;SDS011;59459;51.172;6.682;2023-05-20T14:05:34;6.57;;;3.07;;
71610;SDS011;59459;51.172;6.682;2023-05-20T14:07:59;6.85;;;3.22;;
71610;SDS011;59459;51.172;6.682;2023-05-20T14:10:24;6.17;;;3.40;;
71610;SDS011;59459;51.172;6.682;2023-05-20T14:12:51;6.80;;;3.70;;
71610;SDS011;59459;51.172;6.682;2023-05-20T14:15:16;6.40;;;3.20;;
71610;SDS011;59459;51.172;6.682;2023-05-20T14:17:41;5.83;;;3.00;;
71610;SDS011;59459;51.172;6.682;2023-05-20T14:20:07;6.80;;;3.30;;
71610;SDS011;59459;51.172;6.682;2023-05-20T14:22:32;4.93;;;2.53;;
71610;SDS011;59459;51.172;6.682;2023-05-20T14:24:57;6.20;;;3.20;;
71610;SDS011;59459;51.172;6.682;2023-05-20T14:27:22;4.67;;;3.03;;
71610;SDS011;59459;51.172;6.682;2023-05-20T14:29:48;6.00;;;3.50;;
71610;SDS011;59459;51.172;6.682;2023-05-20T14:32:13;5.37;;;3.20;;
71610;SDS011;59459;51.172;6.682;2023-05-20T14:34:38;7.00;;;2.90;;
71610;SDS011;59459;51.172;6.682;2023-05-20T14:37:03;8.30;;;3.90;;
71610;SDS011;59459;51.172;6.682;2023-05-20T14:39:33;6.47;;;3.20;;
71610;SDS011;59459;51.172;6.682;2023-05-20T14:41:58;8.10;;;3.90;;
71610;SDS011;59459;51.172;6.682;2023-05-20T14:44:24;5.47;;;3.22;;
71610;SDS011;59459;51.172;6.682;2023-05-20T14:46:49;6.57;;;3.33;;
71610;SDS011;59459;51.172;6.682;2023-05-20T14:49:14;8.33;;;3.90;;